Ashfield, Massachusetts
Current Conditions -  °F | °C
As of 11:52 AM on Saturday 25 Oct 2014 (Local Time) from KAQW Reporting Station
Clear Clear  
Wind Chill: 56°   Ceiling: Unl
Heat Index: 56°   Visibility: 10mi
Dew Point: 44°   Wind: 7mph
Humidity: 64%   Direction: 300°WNW
Pressure: 29.75"   Gusts: NA
Location:  42.53°N, 72.79°W
Report Text: KAQW 251552Z AUTO 30006KT 10SM CLR 13/07 A2975 RMK AO2 SLP076 T01330067
Loading
Personal Weather Stations






























Interactive Weather Map
Tropical Storm Tracking
New forecast layout! Learn more

10-Day Weather Forecast

Advertisements
Track Severe Weather on mobile